<?xml version="1.0" encoding="utf-8"?>
<gpx xmlns:xsi="http://www.w3.org/2001/XMLSchema-instance" xmlns:xsd="http://www.w3.org/2001/XMLSchema" version="1.1" creator="Shapelink.com" xmlns="http://www.topografix.com/GPX/1/1" xmlns:gpxtpx="http://www.garmin.com/xmlschemas/TrackPointExtension/v1">
  <metadata>
    <name>Løping 4.78 km, 2012-08-14</name>
    <desc></desc>
    <author><name>Mikael Blom</name></author> 
    <time>2012-08-14T18:12:44Z</time>
  </metadata>
  <trk>
    <name>Løping 4.78 km, 2012-08-14</name>
    <trkseg>
      <trkpt lat="59.9550404" lon="17.7143358">
        <ele>41.474</ele>
        <time>2012-08-14T18:12:44Z</time>
      </trkpt>
      <trkpt lat="59.9549297" lon="17.7145519">
        <ele>39.5513</ele>
        <time>2012-08-14T18:12:50Z</time>
      </trkpt>
      <trkpt lat="59.9548728" lon="17.7147115">
        <ele>39.0707</ele>
        <time>2012-08-14T18:12:54Z</time>
      </trkpt>
      <trkpt lat="59.9547896" lon="17.7148119">
        <ele>40.0321</ele>
        <time>2012-08-14T18:12:58Z</time>
      </trkpt>
      <trkpt lat="59.9546212" lon="17.7148481">
        <ele>43.3966</ele>
        <time>2012-08-14T18:13:04Z</time>
      </trkpt>
      <trkpt lat="59.9545001" lon="17.7147697">
        <ele>43.8773</ele>
        <time>2012-08-14T18:13:09Z</time>
      </trkpt>
      <trkpt lat="59.9544741" lon="17.7147561">
        <ele>43.8773</ele>
        <time>2012-08-14T18:13:10Z</time>
      </trkpt>
      <trkpt lat="59.9543404" lon="17.714795">
        <ele>46.7612</ele>
        <time>2012-08-14T18:13:15Z</time>
      </trkpt>
      <trkpt lat="59.9541665" lon="17.7148491">
        <ele>48.684</ele>
        <time>2012-08-14T18:13:21Z</time>
      </trkpt>
      <trkpt lat="59.9540491" lon="17.7148752">
        <ele>50.6066</ele>
        <time>2012-08-14T18:13:25Z</time>
      </trkpt>
      <trkpt lat="59.9539075" lon="17.7149105">
        <ele>53.4905</ele>
        <time>2012-08-14T18:13:31Z</time>
      </trkpt>
      <trkpt lat="59.9538098" lon="17.7149389">
        <ele>54.9324</ele>
        <time>2012-08-14T18:13:36Z</time>
      </trkpt>
      <trkpt lat="59.9537256" lon="17.7149794">
        <ele>54.4518</ele>
        <time>2012-08-14T18:13:40Z</time>
      </trkpt>
      <trkpt lat="59.9536307" lon="17.7150804">
        <ele>55.4131</ele>
        <time>2012-08-14T18:13:45Z</time>
      </trkpt>
      <trkpt lat="59.9535437" lon="17.7152095">
        <ele>54.4518</ele>
        <time>2012-08-14T18:13:49Z</time>
      </trkpt>
      <trkpt lat="59.9534356" lon="17.7153558">
        <ele>54.9324</ele>
        <time>2012-08-14T18:13:54Z</time>
      </trkpt>
      <trkpt lat="59.9533598" lon="17.7154886">
        <ele>52.0486</ele>
        <time>2012-08-14T18:13:59Z</time>
      </trkpt>
      <trkpt lat="59.9532572" lon="17.7156367">
        <ele>52.5292</ele>
        <time>2012-08-14T18:14:04Z</time>
      </trkpt>
      <trkpt lat="59.9531589" lon="17.7157802">
        <ele>49.6453</ele>
        <time>2012-08-14T18:14:10Z</time>
      </trkpt>
      <trkpt lat="59.9531216" lon="17.7158247">
        <ele>48.684</ele>
        <time>2012-08-14T18:14:12Z</time>
      </trkpt>
      <trkpt lat="59.953052" lon="17.7160054">
        <ele>48.684</ele>
        <time>2012-08-14T18:14:17Z</time>
      </trkpt>
      <trkpt lat="59.9530119" lon="17.7162434">
        <ele>49.6453</ele>
        <time>2012-08-14T18:14:24Z</time>
      </trkpt>
      <trkpt lat="59.9529693" lon="17.7164365">
        <ele>51.0872</ele>
        <time>2012-08-14T18:14:29Z</time>
      </trkpt>
      <trkpt lat="59.9529536" lon="17.7166202">
        <ele>51.0872</ele>
        <time>2012-08-14T18:14:33Z</time>
      </trkpt>
      <trkpt lat="59.952936" lon="17.7168204">
        <ele>51.5679</ele>
        <time>2012-08-14T18:14:38Z</time>
      </trkpt>
      <trkpt lat="59.9529144" lon="17.7170672">
        <ele>51.0872</ele>
        <time>2012-08-14T18:14:44Z</time>
      </trkpt>
      <trkpt lat="59.9528595" lon="17.7172772">
        <ele>51.0872</ele>
        <time>2012-08-14T18:14:49Z</time>
      </trkpt>
      <trkpt lat="59.9528019" lon="17.7175029">
        <ele>51.0872</ele>
        <time>2012-08-14T18:14:55Z</time>
      </trkpt>
      <trkpt lat="59.9527609" lon="17.7176614">
        <ele>51.5679</ele>
        <time>2012-08-14T18:14:59Z</time>
      </trkpt>
      <trkpt lat="59.9527272" lon="17.7177629">
        <ele>52.5292</ele>
        <time>2012-08-14T18:15:02Z</time>
      </trkpt>
      <trkpt lat="59.9526579" lon="17.7179657">
        <ele>53.9712</ele>
        <time>2012-08-14T18:15:08Z</time>
      </trkpt>
      <trkpt lat="59.952632" lon="17.7180709">
        <ele>53.4905</ele>
        <time>2012-08-14T18:15:11Z</time>
      </trkpt>
      <trkpt lat="59.9525747" lon="17.7184022">
        <ele>53.4905</ele>
        <time>2012-08-14T18:15:18Z</time>
      </trkpt>
      <trkpt lat="59.9525669" lon="17.718446">
        <ele>53.0098</ele>
        <time>2012-08-14T18:15:19Z</time>
      </trkpt>
      <trkpt lat="59.9525273" lon="17.7186755">
        <ele>53.4905</ele>
        <time>2012-08-14T18:15:24Z</time>
      </trkpt>
      <trkpt lat="59.9524714" lon="17.7189001">
        <ele>52.0486</ele>
        <time>2012-08-14T18:15:29Z</time>
      </trkpt>
      <trkpt lat="59.9524246" lon="17.7191186">
        <ele>52.0486</ele>
        <time>2012-08-14T18:15:34Z</time>
      </trkpt>
      <trkpt lat="59.9524063" lon="17.719341">
        <ele>52.0486</ele>
        <time>2012-08-14T18:15:39Z</time>
      </trkpt>
      <trkpt lat="59.9524055" lon="17.719448">
        <ele>52.5292</ele>
        <time>2012-08-14T18:15:41Z</time>
      </trkpt>
      <trkpt lat="59.9524025" lon="17.7196326">
        <ele>52.0486</ele>
        <time>2012-08-14T18:15:45Z</time>
      </trkpt>
      <trkpt lat="59.9524544" lon="17.7198495">
        <ele>52.5292</ele>
        <time>2012-08-14T18:15:51Z</time>
      </trkpt>
      <trkpt lat="59.9524834" lon="17.7200714">
        <ele>53.4905</ele>
        <time>2012-08-14T18:15:56Z</time>
      </trkpt>
      <trkpt lat="59.9525003" lon="17.7203089">
        <ele>55.8938</ele>
        <time>2012-08-14T18:16:01Z</time>
      </trkpt>
      <trkpt lat="59.9525082" lon="17.7204528">
        <ele>55.8938</ele>
        <time>2012-08-14T18:16:04Z</time>
      </trkpt>
      <trkpt lat="59.9525177" lon="17.720763">
        <ele>55.4131</ele>
        <time>2012-08-14T18:16:11Z</time>
      </trkpt>
      <trkpt lat="59.9525112" lon="17.7210478">
        <ele>55.4131</ele>
        <time>2012-08-14T18:16:17Z</time>
      </trkpt>
      <trkpt lat="59.952506" lon="17.7211369">
        <ele>55.4131</ele>
        <time>2012-08-14T18:16:19Z</time>
      </trkpt>
      <trkpt lat="59.9525165" lon="17.7214306">
        <ele>56.3745</ele>
        <time>2012-08-14T18:16:25Z</time>
      </trkpt>
      <trkpt lat="59.9525119" lon="17.721484">
        <ele>55.4131</ele>
        <time>2012-08-14T18:16:26Z</time>
      </trkpt>
      <trkpt lat="59.95253" lon="17.7217648">
        <ele>55.8938</ele>
        <time>2012-08-14T18:16:32Z</time>
      </trkpt>
      <trkpt lat="59.9525563" lon="17.7220207">
        <ele>54.9324</ele>
        <time>2012-08-14T18:16:38Z</time>
      </trkpt>
      <trkpt lat="59.952543" lon="17.7222165">
        <ele>53.4905</ele>
        <time>2012-08-14T18:16:42Z</time>
      </trkpt>
      <trkpt lat="59.9525284" lon="17.7223081">
        <ele>53.0098</ele>
        <time>2012-08-14T18:16:44Z</time>
      </trkpt>
      <trkpt lat="59.9524881" lon="17.7225303">
        <ele>51.0872</ele>
        <time>2012-08-14T18:16:49Z</time>
      </trkpt>
      <trkpt lat="59.95246" lon="17.7226489">
        <ele>50.126</ele>
        <time>2012-08-14T18:16:52Z</time>
      </trkpt>
      <trkpt lat="59.9524781" lon="17.7229721">
        <ele>48.684</ele>
        <time>2012-08-14T18:16:59Z</time>
      </trkpt>
      <trkpt lat="59.9525347" lon="17.7232759">
        <ele>50.126</ele>
        <time>2012-08-14T18:17:06Z</time>
      </trkpt>
      <trkpt lat="59.9525756" lon="17.7234245">
        <ele>50.126</ele>
        <time>2012-08-14T18:17:10Z</time>
      </trkpt>
      <trkpt lat="59.9526502" lon="17.7235903">
        <ele>50.6066</ele>
        <time>2012-08-14T18:17:15Z</time>
      </trkpt>
      <trkpt lat="59.9526645" lon="17.7236356">
        <ele>50.6066</ele>
        <time>2012-08-14T18:17:16Z</time>
      </trkpt>
      <trkpt lat="59.9527279" lon="17.7239">
        <ele>50.6066</ele>
        <time>2012-08-14T18:17:22Z</time>
      </trkpt>
      <trkpt lat="59.9526817" lon="17.7241492">
        <ele>50.126</ele>
        <time>2012-08-14T18:17:27Z</time>
      </trkpt>
      <trkpt lat="59.9526579" lon="17.7242384">
        <ele>50.126</ele>
        <time>2012-08-14T18:17:29Z</time>
      </trkpt>
      <trkpt lat="59.9525664" lon="17.7244521">
        <ele>50.126</ele>
        <time>2012-08-14T18:17:35Z</time>
      </trkpt>
      <trkpt lat="59.9525284" lon="17.7245403">
        <ele>50.126</ele>
        <time>2012-08-14T18:17:37Z</time>
      </trkpt>
      <trkpt lat="59.9524238" lon="17.7247252">
        <ele>50.126</ele>
        <time>2012-08-14T18:17:42Z</time>
      </trkpt>
      <trkpt lat="59.9523057" lon="17.7249355">
        <ele>51.5679</ele>
        <time>2012-08-14T18:17:48Z</time>
      </trkpt>
      <trkpt lat="59.9522423" lon="17.7250521">
        <ele>51.0872</ele>
        <time>2012-08-14T18:17:52Z</time>
      </trkpt>
      <trkpt lat="59.9521508" lon="17.7252111">
        <ele>50.126</ele>
        <time>2012-08-14T18:17:57Z</time>
      </trkpt>
      <trkpt lat="59.9520938" lon="17.7253111">
        <ele>49.6453</ele>
        <time>2012-08-14T18:18:00Z</time>
      </trkpt>
      <trkpt lat="59.9520299" lon="17.7254509">
        <ele>49.1646</ele>
        <time>2012-08-14T18:18:04Z</time>
      </trkpt>
      <trkpt lat="59.9519263" lon="17.7256859">
        <ele>47.7225</ele>
        <time>2012-08-14T18:18:10Z</time>
      </trkpt>
      <trkpt lat="59.9518726" lon="17.7258123">
        <ele>46.2806</ele>
        <time>2012-08-14T18:18:14Z</time>
      </trkpt>
      <trkpt lat="59.9517825" lon="17.7259508">
        <ele>45.3192</ele>
        <time>2012-08-14T18:18:19Z</time>
      </trkpt>
      <trkpt lat="59.9516894" lon="17.7260851">
        <ele>44.358</ele>
        <time>2012-08-14T18:18:24Z</time>
      </trkpt>
      <trkpt lat="59.9516134" lon="17.7262412">
        <ele>44.358</ele>
        <time>2012-08-14T18:18:29Z</time>
      </trkpt>
      <trkpt lat="59.9515606" lon="17.7263798">
        <ele>43.8773</ele>
        <time>2012-08-14T18:18:33Z</time>
      </trkpt>
      <trkpt lat="59.9514907" lon="17.7265662">
        <ele>43.3966</ele>
        <time>2012-08-14T18:18:38Z</time>
      </trkpt>
      <trkpt lat="59.9514182" lon="17.7267566">
        <ele>44.8386</ele>
        <time>2012-08-14T18:18:44Z</time>
      </trkpt>
      <trkpt lat="59.9514199" lon="17.7267931">
        <ele>44.8386</ele>
        <time>2012-08-14T18:18:45Z</time>
      </trkpt>
      <trkpt lat="59.9514784" lon="17.7270666">
        <ele>48.684</ele>
        <time>2012-08-14T18:18:52Z</time>
      </trkpt>
      <trkpt lat="59.9515072" lon="17.7273111">
        <ele>49.6453</ele>
        <time>2012-08-14T18:18:57Z</time>
      </trkpt>
      <trkpt lat="59.9515278" lon="17.7276018">
        <ele>52.0486</ele>
        <time>2012-08-14T18:19:03Z</time>
      </trkpt>
      <trkpt lat="59.95154" lon="17.7276782">
        <ele>52.5292</ele>
        <time>2012-08-14T18:19:05Z</time>
      </trkpt>
      <trkpt lat="59.9516228" lon="17.7278274">
        <ele>53.4905</ele>
        <time>2012-08-14T18:19:10Z</time>
      </trkpt>
      <trkpt lat="59.9517463" lon="17.7279">
        <ele>51.5679</ele>
        <time>2012-08-14T18:19:16Z</time>
      </trkpt>
      <trkpt lat="59.9517704" lon="17.7279068">
        <ele>51.0872</ele>
        <time>2012-08-14T18:19:17Z</time>
      </trkpt>
      <trkpt lat="59.9519043" lon="17.7278492">
        <ele>49.1646</ele>
        <time>2012-08-14T18:19:23Z</time>
      </trkpt>
      <trkpt lat="59.9520067" lon="17.7277736">
        <ele>51.0872</ele>
        <time>2012-08-14T18:19:27Z</time>
      </trkpt>
      <trkpt lat="59.952048" lon="17.7276473">
        <ele>51.0872</ele>
        <time>2012-08-14T18:19:31Z</time>
      </trkpt>
      <trkpt lat="59.9520854" lon="17.7274653">
        <ele>52.0486</ele>
        <time>2012-08-14T18:19:35Z</time>
      </trkpt>
      <trkpt lat="59.9520938" lon="17.7273779">
        <ele>53.0098</ele>
        <time>2012-08-14T18:19:37Z</time>
      </trkpt>
      <trkpt lat="59.9521242" lon="17.727066">
        <ele>53.0098</ele>
        <time>2012-08-14T18:19:43Z</time>
      </trkpt>
      <trkpt lat="59.9521628" lon="17.7268506">
        <ele>52.5292</ele>
        <time>2012-08-14T18:19:47Z</time>
      </trkpt>
      <trkpt lat="59.9521846" lon="17.7266361">
        <ele>50.6066</ele>
        <time>2012-08-14T18:19:50Z</time>
      </trkpt>
      <trkpt lat="59.9521939" lon="17.7265755">
        <ele>50.126</ele>
        <time>2012-08-14T18:19:51Z</time>
      </trkpt>
      <trkpt lat="59.9522636" lon="17.7265184">
        <ele>48.684</ele>
        <time>2012-08-14T18:19:55Z</time>
      </trkpt>
      <trkpt lat="59.9523305" lon="17.7263855">
        <ele>48.2034</ele>
        <time>2012-08-14T18:19:59Z</time>
      </trkpt>
      <trkpt lat="59.9524433" lon="17.7262039">
        <ele>48.684</ele>
        <time>2012-08-14T18:20:06Z</time>
      </trkpt>
      <trkpt lat="59.952531" lon="17.7260005">
        <ele>47.2418</ele>
        <time>2012-08-14T18:20:12Z</time>
      </trkpt>
      <trkpt lat="59.9526045" lon="17.7258374">
        <ele>45.3192</ele>
        <time>2012-08-14T18:20:17Z</time>
      </trkpt>
      <trkpt lat="59.9526818" lon="17.7256566">
        <ele>43.8773</ele>
        <time>2012-08-14T18:20:23Z</time>
      </trkpt>
      <trkpt lat="59.9527543" lon="17.725482">
        <ele>44.358</ele>
        <time>2012-08-14T18:20:28Z</time>
      </trkpt>
      <trkpt lat="59.9528517" lon="17.72531">
        <ele>43.3966</ele>
        <time>2012-08-14T18:20:34Z</time>
      </trkpt>
      <trkpt lat="59.952982" lon="17.7251325">
        <ele>43.3966</ele>
        <time>2012-08-14T18:20:41Z</time>
      </trkpt>
      <trkpt lat="59.9530609" lon="17.7249852">
        <ele>42.916</ele>
        <time>2012-08-14T18:20:46Z</time>
      </trkpt>
      <trkpt lat="59.9531484" lon="17.7248682">
        <ele>44.8386</ele>
        <time>2012-08-14T18:20:51Z</time>
      </trkpt>
      <trkpt lat="59.953234" lon="17.7247128">
        <ele>45.3192</ele>
        <time>2012-08-14T18:20:56Z</time>
      </trkpt>
      <trkpt lat="59.9533389" lon="17.7244843">
        <ele>44.358</ele>
        <time>2012-08-14T18:21:03Z</time>
      </trkpt>
      <trkpt lat="59.9534112" lon="17.7243616">
        <ele>44.8386</ele>
        <time>2012-08-14T18:21:08Z</time>
      </trkpt>
      <trkpt lat="59.9535" lon="17.7241472">
        <ele>42.916</ele>
        <time>2012-08-14T18:21:14Z</time>
      </trkpt>
      <trkpt lat="59.9536067" lon="17.7240062">
        <ele>50.6066</ele>
        <time>2012-08-14T18:21:19Z</time>
      </trkpt>
      <trkpt lat="59.9536922" lon="17.7238626">
        <ele>50.6066</ele>
        <time>2012-08-14T18:21:24Z</time>
      </trkpt>
      <trkpt lat="59.9537655" lon="17.7236943">
        <ele>50.126</ele>
        <time>2012-08-14T18:21:29Z</time>
      </trkpt>
      <trkpt lat="59.9538451" lon="17.7235659">
        <ele>50.126</ele>
        <time>2012-08-14T18:21:34Z</time>
      </trkpt>
      <trkpt lat="59.9539478" lon="17.7234841">
        <ele>51.5679</ele>
        <time>2012-08-14T18:21:39Z</time>
      </trkpt>
      <trkpt lat="59.9540403" lon="17.7233782">
        <ele>51.5679</ele>
        <time>2012-08-14T18:21:44Z</time>
      </trkpt>
      <trkpt lat="59.9541343" lon="17.7232633">
        <ele>53.4905</ele>
        <time>2012-08-14T18:21:50Z</time>
      </trkpt>
      <trkpt lat="59.9542745" lon="17.7232471">
        <ele>58.2971</ele>
        <time>2012-08-14T18:21:56Z</time>
      </trkpt>
      <trkpt lat="59.9544005" lon="17.7232706">
        <ele>55.8938</ele>
        <time>2012-08-14T18:22:02Z</time>
      </trkpt>
      <trkpt lat="59.954497" lon="17.7232892">
        <ele>56.3745</ele>
        <time>2012-08-14T18:22:07Z</time>
      </trkpt>
      <trkpt lat="59.9546119" lon="17.7233754">
        <ele>56.8551</ele>
        <time>2012-08-14T18:22:13Z</time>
      </trkpt>
      <trkpt lat="59.9547424" lon="17.7234737">
        <ele>58.2971</ele>
        <time>2012-08-14T18:22:19Z</time>
      </trkpt>
      <trkpt lat="59.9548469" lon="17.7235118">
        <ele>60.7003</ele>
        <time>2012-08-14T18:22:24Z</time>
      </trkpt>
      <trkpt lat="59.9548648" lon="17.723532">
        <ele>60.7003</ele>
        <time>2012-08-14T18:22:25Z</time>
      </trkpt>
      <trkpt lat="59.9550148" lon="17.7236238">
        <ele>61.181</ele>
        <time>2012-08-14T18:22:31Z</time>
      </trkpt>
      <trkpt lat="59.9551024" lon="17.7235679">
        <ele>57.3358</ele>
        <time>2012-08-14T18:22:35Z</time>
      </trkpt>
      <trkpt lat="59.9552331" lon="17.7234104">
        <ele>56.8551</ele>
        <time>2012-08-14T18:22:41Z</time>
      </trkpt>
      <trkpt lat="59.9553257" lon="17.7233073">
        <ele>54.9324</ele>
        <time>2012-08-14T18:22:46Z</time>
      </trkpt>
      <trkpt lat="59.9553659" lon="17.7232635">
        <ele>55.4131</ele>
        <time>2012-08-14T18:22:48Z</time>
      </trkpt>
      <trkpt lat="59.9554822" lon="17.7232942">
        <ele>59.7391</ele>
        <time>2012-08-14T18:22:54Z</time>
      </trkpt>
      <trkpt lat="59.9556287" lon="17.723397">
        <ele>58.7777</ele>
        <time>2012-08-14T18:23:00Z</time>
      </trkpt>
      <trkpt lat="59.955738" lon="17.7234726">
        <ele>59.7391</ele>
        <time>2012-08-14T18:23:05Z</time>
      </trkpt>
      <trkpt lat="59.9558603" lon="17.7236216">
        <ele>60.2197</ele>
        <time>2012-08-14T18:23:11Z</time>
      </trkpt>
      <trkpt lat="59.9559024" lon="17.7236218">
        <ele>59.2584</ele>
        <time>2012-08-14T18:23:13Z</time>
      </trkpt>
      <trkpt lat="59.9559824" lon="17.7234999">
        <ele>53.4905</ele>
        <time>2012-08-14T18:23:19Z</time>
      </trkpt>
      <trkpt lat="59.9560317" lon="17.7232898">
        <ele>48.684</ele>
        <time>2012-08-14T18:23:26Z</time>
      </trkpt>
      <trkpt lat="59.9560644" lon="17.7230566">
        <ele>46.7612</ele>
        <time>2012-08-14T18:23:31Z</time>
      </trkpt>
      <trkpt lat="59.9560727" lon="17.7229373">
        <ele>46.2806</ele>
        <time>2012-08-14T18:23:34Z</time>
      </trkpt>
      <trkpt lat="59.9560823" lon="17.7227827">
        <ele>46.7612</ele>
        <time>2012-08-14T18:23:38Z</time>
      </trkpt>
      <trkpt lat="59.9560339" lon="17.7225507">
        <ele>47.2418</ele>
        <time>2012-08-14T18:23:43Z</time>
      </trkpt>
      <trkpt lat="59.9560258" lon="17.7225097">
        <ele>47.7225</ele>
        <time>2012-08-14T18:23:44Z</time>
      </trkpt>
      <trkpt lat="59.9559752" lon="17.722232">
        <ele>49.1646</ele>
        <time>2012-08-14T18:23:51Z</time>
      </trkpt>
      <trkpt lat="59.9559535" lon="17.7219559">
        <ele>51.0872</ele>
        <time>2012-08-14T18:23:57Z</time>
      </trkpt>
      <trkpt lat="59.9559649" lon="17.7217374">
        <ele>52.0486</ele>
        <time>2012-08-14T18:24:02Z</time>
      </trkpt>
      <trkpt lat="59.9559767" lon="17.7215636">
        <ele>53.4905</ele>
        <time>2012-08-14T18:24:06Z</time>
      </trkpt>
      <trkpt lat="59.9560131" lon="17.7213629">
        <ele>55.4131</ele>
        <time>2012-08-14T18:24:10Z</time>
      </trkpt>
      <trkpt lat="59.9559495" lon="17.7212528">
        <ele>55.8938</ele>
        <time>2012-08-14T18:24:14Z</time>
      </trkpt>
      <trkpt lat="59.9558249" lon="17.7211773">
        <ele>53.4905</ele>
        <time>2012-08-14T18:24:19Z</time>
      </trkpt>
      <trkpt lat="59.9557318" lon="17.7212403">
        <ele>53.0098</ele>
        <time>2012-08-14T18:24:23Z</time>
      </trkpt>
      <trkpt lat="59.9556565" lon="17.7213332">
        <ele>51.5679</ele>
        <time>2012-08-14T18:24:27Z</time>
      </trkpt>
      <trkpt lat="59.9556448" lon="17.7213364">
        <ele>50.6066</ele>
        <time>2012-08-14T18:24:28Z</time>
      </trkpt>
      <trkpt lat="59.9555909" lon="17.7213809">
        <ele>49.6453</ele>
        <time>2012-08-14T18:24:31Z</time>
      </trkpt>
      <trkpt lat="59.9554707" lon="17.7214072">
        <ele>45.3192</ele>
        <time>2012-08-14T18:24:36Z</time>
      </trkpt>
      <trkpt lat="59.9553304" lon="17.7213778">
        <ele>41.474</ele>
        <time>2012-08-14T18:24:43Z</time>
      </trkpt>
      <trkpt lat="59.9552283" lon="17.7213527">
        <ele>38.1094</ele>
        <time>2012-08-14T18:24:48Z</time>
      </trkpt>
      <trkpt lat="59.9551167" lon="17.7213597">
        <ele>36.1868</ele>
        <time>2012-08-14T18:24:53Z</time>
      </trkpt>
      <trkpt lat="59.9550122" lon="17.7213242">
        <ele>36.1868</ele>
        <time>2012-08-14T18:24:58Z</time>
      </trkpt>
      <trkpt lat="59.9549065" lon="17.7212555">
        <ele>36.6675</ele>
        <time>2012-08-14T18:25:04Z</time>
      </trkpt>
      <trkpt lat="59.9548314" lon="17.7210873">
        <ele>38.1094</ele>
        <time>2012-08-14T18:25:09Z</time>
      </trkpt>
      <trkpt lat="59.9548103" lon="17.7208469">
        <ele>43.3966</ele>
        <time>2012-08-14T18:25:13Z</time>
      </trkpt>
      <trkpt lat="59.9548248" lon="17.7206319">
        <ele>50.126</ele>
        <time>2012-08-14T18:25:18Z</time>
      </trkpt>
      <trkpt lat="59.9548957" lon="17.7204967">
        <ele>53.0098</ele>
        <time>2012-08-14T18:25:23Z</time>
      </trkpt>
      <trkpt lat="59.9550018" lon="17.7203664">
        <ele>56.3745</ele>
        <time>2012-08-14T18:25:28Z</time>
      </trkpt>
      <trkpt lat="59.9551397" lon="17.7202882">
        <ele>58.2971</ele>
        <time>2012-08-14T18:25:34Z</time>
      </trkpt>
      <trkpt lat="59.9552628" lon="17.7202123">
        <ele>58.2971</ele>
        <time>2012-08-14T18:25:39Z</time>
      </trkpt>
      <trkpt lat="59.9553764" lon="17.7200403">
        <ele>60.7003</ele>
        <time>2012-08-14T18:25:45Z</time>
      </trkpt>
      <trkpt lat="59.9554261" lon="17.7199961">
        <ele>61.6617</ele>
        <time>2012-08-14T18:25:48Z</time>
      </trkpt>
      <trkpt lat="59.9555045" lon="17.7199077">
        <ele>62.1423</ele>
        <time>2012-08-14T18:25:53Z</time>
      </trkpt>
      <trkpt lat="59.955639" lon="17.719827">
        <ele>62.6229</ele>
        <time>2012-08-14T18:25:59Z</time>
      </trkpt>
      <trkpt lat="59.9557448" lon="17.7197372">
        <ele>63.5844</ele>
        <time>2012-08-14T18:26:04Z</time>
      </trkpt>
      <trkpt lat="59.955838" lon="17.7196433">
        <ele>63.1036</ele>
        <time>2012-08-14T18:26:09Z</time>
      </trkpt>
      <trkpt lat="59.9559774" lon="17.7194967">
        <ele>61.181</ele>
        <time>2012-08-14T18:26:16Z</time>
      </trkpt>
      <trkpt lat="59.9560659" lon="17.7193783">
        <ele>57.3358</ele>
        <time>2012-08-14T18:26:21Z</time>
      </trkpt>
      <trkpt lat="59.9561742" lon="17.7191922">
        <ele>55.8938</ele>
        <time>2012-08-14T18:26:27Z</time>
      </trkpt>
      <trkpt lat="59.9562009" lon="17.7191175">
        <ele>56.8551</ele>
        <time>2012-08-14T18:26:29Z</time>
      </trkpt>
      <trkpt lat="59.956231" lon="17.7189561">
        <ele>56.3745</ele>
        <time>2012-08-14T18:26:33Z</time>
      </trkpt>
      <trkpt lat="59.9562163" lon="17.7186339">
        <ele>55.4131</ele>
        <time>2012-08-14T18:26:39Z</time>
      </trkpt>
      <trkpt lat="59.9561664" lon="17.7184635">
        <ele>53.9712</ele>
        <time>2012-08-14T18:26:43Z</time>
      </trkpt>
      <trkpt lat="59.9560634" lon="17.7181997">
        <ele>54.4518</ele>
        <time>2012-08-14T18:26:49Z</time>
      </trkpt>
      <trkpt lat="59.9559868" lon="17.7179992">
        <ele>55.4131</ele>
        <time>2012-08-14T18:26:54Z</time>
      </trkpt>
      <trkpt lat="59.9558987" lon="17.7177936">
        <ele>57.8165</ele>
        <time>2012-08-14T18:27:00Z</time>
      </trkpt>
      <trkpt lat="59.9558337" lon="17.717615">
        <ele>58.7777</ele>
        <time>2012-08-14T18:27:05Z</time>
      </trkpt>
      <trkpt lat="59.9557682" lon="17.7174504">
        <ele>59.2584</ele>
        <time>2012-08-14T18:27:10Z</time>
      </trkpt>
      <trkpt lat="59.9557021" lon="17.7172732">
        <ele>59.2584</ele>
        <time>2012-08-14T18:27:15Z</time>
      </trkpt>
      <trkpt lat="59.9556249" lon="17.7171074">
        <ele>58.7777</ele>
        <time>2012-08-14T18:27:20Z</time>
      </trkpt>
      <trkpt lat="59.9555764" lon="17.7169362">
        <ele>58.7777</ele>
        <time>2012-08-14T18:27:24Z</time>
      </trkpt>
      <trkpt lat="59.9555354" lon="17.7167065">
        <ele>59.2584</ele>
        <time>2012-08-14T18:27:29Z</time>
      </trkpt>
      <trkpt lat="59.9555081" lon="17.7164413">
        <ele>58.7777</ele>
        <time>2012-08-14T18:27:35Z</time>
      </trkpt>
      <trkpt lat="59.9555029" lon="17.7162381">
        <ele>59.2584</ele>
        <time>2012-08-14T18:27:40Z</time>
      </trkpt>
      <trkpt lat="59.9554992" lon="17.7160076">
        <ele>60.2197</ele>
        <time>2012-08-14T18:27:44Z</time>
      </trkpt>
      <trkpt lat="59.9554635" lon="17.715774">
        <ele>58.7777</ele>
        <time>2012-08-14T18:27:49Z</time>
      </trkpt>
      <trkpt lat="59.9554319" lon="17.7155363">
        <ele>59.2584</ele>
        <time>2012-08-14T18:27:54Z</time>
      </trkpt>
      <trkpt lat="59.9554315" lon="17.7154926">
        <ele>58.2971</ele>
        <time>2012-08-14T18:27:55Z</time>
      </trkpt>
      <trkpt lat="59.9554372" lon="17.7152373">
        <ele>55.8938</ele>
        <time>2012-08-14T18:28:01Z</time>
      </trkpt>
      <trkpt lat="59.9554258" lon="17.7151477">
        <ele>55.4131</ele>
        <time>2012-08-14T18:28:03Z</time>
      </trkpt>
      <trkpt lat="59.9553859" lon="17.7149332">
        <ele>53.0098</ele>
        <time>2012-08-14T18:28:08Z</time>
      </trkpt>
      <trkpt lat="59.9553406" lon="17.7147094">
        <ele>51.5679</ele>
        <time>2012-08-14T18:28:13Z</time>
      </trkpt>
      <trkpt lat="59.9552797" lon="17.714368">
        <ele>47.7225</ele>
        <time>2012-08-14T18:28:20Z</time>
      </trkpt>
      <trkpt lat="59.9552597" lon="17.7141977">
        <ele>47.2418</ele>
        <time>2012-08-14T18:28:24Z</time>
      </trkpt>
      <trkpt lat="59.9552081" lon="17.714093">
        <ele>45.7999</ele>
        <time>2012-08-14T18:28:28Z</time>
      </trkpt>
      <trkpt lat="59.9551561" lon="17.7142029">
        <ele>44.8386</ele>
        <time>2012-08-14T18:28:32Z</time>
      </trkpt>
      <trkpt lat="59.9551325" lon="17.7143021">
        <ele>45.3192</ele>
        <time>2012-08-14T18:28:34Z</time>
      </trkpt>
      <trkpt lat="59.955031" lon="17.7144386">
        <ele>41.9547</ele>
        <time>2012-08-14T18:28:39Z</time>
      </trkpt>
      <trkpt lat="59.9549957" lon="17.7145007">
        <ele>40.9934</ele>
        <time>2012-08-14T18:28:41Z</time>
      </trkpt>
      <trkpt lat="59.954889" lon="17.7147301">
        <ele>42.4354</ele>
        <time>2012-08-14T18:28:47Z</time>
      </trkpt>
      <trkpt lat="59.9548621" lon="17.7147835">
        <ele>41.9547</ele>
        <time>2012-08-14T18:28:49Z</time>
      </trkpt>
      <trkpt lat="59.9547462" lon="17.7147968">
        <ele>37.1481</ele>
        <time>2012-08-14T18:28:53Z</time>
      </trkpt>
      <trkpt lat="59.9546107" lon="17.7148149">
        <ele>31.8607</ele>
        <time>2012-08-14T18:28:58Z</time>
      </trkpt>
      <trkpt lat="59.9545839" lon="17.7148284">
        <ele>31.3801</ele>
        <time>2012-08-14T18:28:59Z</time>
      </trkpt>
      <trkpt lat="59.9544493" lon="17.7148347">
        <ele>28.9769</ele>
        <time>2012-08-14T18:29:04Z</time>
      </trkpt>
      <trkpt lat="59.9543509" lon="17.7148598">
        <ele>29.4575</ele>
        <time>2012-08-14T18:29:08Z</time>
      </trkpt>
      <trkpt lat="59.954217" lon="17.7148727">
        <ele>33.7834</ele>
        <time>2012-08-14T18:29:13Z</time>
      </trkpt>
      <trkpt lat="59.9541099" lon="17.7148654">
        <ele>37.6287</ele>
        <time>2012-08-14T18:29:18Z</time>
      </trkpt>
      <trkpt lat="59.9540655" lon="17.7148696">
        <ele>38.5901</ele>
        <time>2012-08-14T18:29:20Z</time>
      </trkpt>
      <trkpt lat="59.9539456" lon="17.7149001">
        <ele>42.916</ele>
        <time>2012-08-14T18:29:26Z</time>
      </trkpt>
      <trkpt lat="59.953825" lon="17.7149525">
        <ele>40.5128</ele>
        <time>2012-08-14T18:29:32Z</time>
      </trkpt>
      <trkpt lat="59.9537568" lon="17.7149942">
        <ele>41.9547</ele>
        <time>2012-08-14T18:29:35Z</time>
      </trkpt>
      <trkpt lat="59.9536396" lon="17.7150809">
        <ele>39.5513</ele>
        <time>2012-08-14T18:29:40Z</time>
      </trkpt>
      <trkpt lat="59.9535686" lon="17.7151019">
        <ele>39.0707</ele>
        <time>2012-08-14T18:29:42Z</time>
      </trkpt>
      <trkpt lat="59.9534661" lon="17.7152871">
        <ele>40.9934</ele>
        <time>2012-08-14T18:29:48Z</time>
      </trkpt>
      <trkpt lat="59.9533912" lon="17.7154528">
        <ele>42.916</ele>
        <time>2012-08-14T18:29:53Z</time>
      </trkpt>
      <trkpt lat="59.9532872" lon="17.7156384">
        <ele>46.7612</ele>
        <time>2012-08-14T18:29:58Z</time>
      </trkpt>
      <trkpt lat="59.9531763" lon="17.7157569">
        <ele>45.3192</ele>
        <time>2012-08-14T18:30:03Z</time>
      </trkpt>
      <trkpt lat="59.9531365" lon="17.7158425">
        <ele>45.3192</ele>
        <time>2012-08-14T18:30:06Z</time>
      </trkpt>
      <trkpt lat="59.9530494" lon="17.7159915">
        <ele>49.1646</ele>
        <time>2012-08-14T18:30:12Z</time>
      </trkpt>
      <trkpt lat="59.9529888" lon="17.7162406">
        <ele>51.0872</ele>
        <time>2012-08-14T18:30:18Z</time>
      </trkpt>
      <trkpt lat="59.9529449" lon="17.7164482">
        <ele>50.6066</ele>
        <time>2012-08-14T18:30:23Z</time>
      </trkpt>
      <trkpt lat="59.9529199" lon="17.716722">
        <ele>49.1646</ele>
        <time>2012-08-14T18:30:30Z</time>
      </trkpt>
      <trkpt lat="59.9529008" lon="17.7169571">
        <ele>50.126</ele>
        <time>2012-08-14T18:30:35Z</time>
      </trkpt>
      <trkpt lat="59.952876" lon="17.7171395">
        <ele>50.126</ele>
        <time>2012-08-14T18:30:39Z</time>
      </trkpt>
      <trkpt lat="59.9528335" lon="17.7173979">
        <ele>51.0872</ele>
        <time>2012-08-14T18:30:45Z</time>
      </trkpt>
      <trkpt lat="59.9528056" lon="17.7175257">
        <ele>51.5679</ele>
        <time>2012-08-14T18:30:48Z</time>
      </trkpt>
      <trkpt lat="59.952731" lon="17.7177668">
        <ele>48.2034</ele>
        <time>2012-08-14T18:30:54Z</time>
      </trkpt>
      <trkpt lat="59.9526801" lon="17.7179578">
        <ele>49.6453</ele>
        <time>2012-08-14T18:30:59Z</time>
      </trkpt>
      <trkpt lat="59.9526671" lon="17.7180292">
        <ele>52.0486</ele>
        <time>2012-08-14T18:31:01Z</time>
      </trkpt>
      <trkpt lat="59.9526036" lon="17.7182155">
        <ele>53.0098</ele>
        <time>2012-08-14T18:31:06Z</time>
      </trkpt>
      <trkpt lat="59.9525636" lon="17.7184117">
        <ele>53.4905</ele>
        <time>2012-08-14T18:31:11Z</time>
      </trkpt>
      <trkpt lat="59.9525258" lon="17.7186">
        <ele>52.5292</ele>
        <time>2012-08-14T18:31:15Z</time>
      </trkpt>
      <trkpt lat="59.9524552" lon="17.7188411">
        <ele>53.0098</ele>
        <time>2012-08-14T18:31:21Z</time>
      </trkpt>
      <trkpt lat="59.9524092" lon="17.7190271">
        <ele>52.5292</ele>
        <time>2012-08-14T18:31:26Z</time>
      </trkpt>
      <trkpt lat="59.952382" lon="17.7192224">
        <ele>51.5679</ele>
        <time>2012-08-14T18:31:30Z</time>
      </trkpt>
      <trkpt lat="59.9523575" lon="17.7195062">
        <ele>49.6453</ele>
        <time>2012-08-14T18:31:36Z</time>
      </trkpt>
      <trkpt lat="59.952364" lon="17.7195927">
        <ele>50.126</ele>
        <time>2012-08-14T18:31:38Z</time>
      </trkpt>
      <trkpt lat="59.9524264" lon="17.7197932">
        <ele>51.5679</ele>
        <time>2012-08-14T18:31:43Z</time>
      </trkpt>
      <trkpt lat="59.9524705" lon="17.7200045">
        <ele>50.6066</ele>
        <time>2012-08-14T18:31:48Z</time>
      </trkpt>
      <trkpt lat="59.9524787" lon="17.720092">
        <ele>49.1646</ele>
        <time>2012-08-14T18:31:50Z</time>
      </trkpt>
      <trkpt lat="59.9524868" lon="17.7203931">
        <ele>47.2418</ele>
        <time>2012-08-14T18:31:56Z</time>
      </trkpt>
      <trkpt lat="59.952473" lon="17.7206692">
        <ele>45.3192</ele>
        <time>2012-08-14T18:32:02Z</time>
      </trkpt>
      <trkpt lat="59.9524601" lon="17.7209131">
        <ele>44.8386</ele>
        <time>2012-08-14T18:32:07Z</time>
      </trkpt>
      <trkpt lat="59.9524352" lon="17.7211939">
        <ele>44.358</ele>
        <time>2012-08-14T18:32:13Z</time>
      </trkpt>
      <trkpt lat="59.9524491" lon="17.721469">
        <ele>47.2418</ele>
        <time>2012-08-14T18:32:19Z</time>
      </trkpt>
      <trkpt lat="59.9524749" lon="17.7216726">
        <ele>46.7612</ele>
        <time>2012-08-14T18:32:24Z</time>
      </trkpt>
      <trkpt lat="59.9525005" lon="17.7218973">
        <ele>47.2418</ele>
        <time>2012-08-14T18:32:29Z</time>
      </trkpt>
      <trkpt lat="59.9525086" lon="17.7221077">
        <ele>46.7612</ele>
        <time>2012-08-14T18:32:33Z</time>
      </trkpt>
      <trkpt lat="59.9524998" lon="17.7223798">
        <ele>44.358</ele>
        <time>2012-08-14T18:32:39Z</time>
      </trkpt>
      <trkpt lat="59.952471" lon="17.7226096">
        <ele>45.3192</ele>
        <time>2012-08-14T18:32:44Z</time>
      </trkpt>
      <trkpt lat="59.9524803" lon="17.7228858">
        <ele>49.1646</ele>
        <time>2012-08-14T18:32:49Z</time>
      </trkpt>
      <trkpt lat="59.9524868" lon="17.7229329">
        <ele>50.126</ele>
        <time>2012-08-14T18:32:50Z</time>
      </trkpt>
      <trkpt lat="59.952546" lon="17.7232199">
        <ele>53.0098</ele>
        <time>2012-08-14T18:32:56Z</time>
      </trkpt>
      <trkpt lat="59.9526134" lon="17.7234499">
        <ele>52.5292</ele>
        <time>2012-08-14T18:33:02Z</time>
      </trkpt>
      <trkpt lat="59.9526754" lon="17.7236618">
        <ele>50.6066</ele>
        <time>2012-08-14T18:33:07Z</time>
      </trkpt>
      <trkpt lat="59.9527103" lon="17.7238959">
        <ele>47.7225</ele>
        <time>2012-08-14T18:33:12Z</time>
      </trkpt>
      <trkpt lat="59.9526745" lon="17.7241282">
        <ele>46.2806</ele>
        <time>2012-08-14T18:33:17Z</time>
      </trkpt>
      <trkpt lat="59.9525694" lon="17.7243796">
        <ele>44.358</ele>
        <time>2012-08-14T18:33:24Z</time>
      </trkpt>
      <trkpt lat="59.9524937" lon="17.7245842">
        <ele>43.3966</ele>
        <time>2012-08-14T18:33:29Z</time>
      </trkpt>
      <trkpt lat="59.9524016" lon="17.7247304">
        <ele>44.358</ele>
        <time>2012-08-14T18:33:34Z</time>
      </trkpt>
      <trkpt lat="59.9523119" lon="17.7248991">
        <ele>43.8773</ele>
        <time>2012-08-14T18:33:39Z</time>
      </trkpt>
      <trkpt lat="59.9522301" lon="17.7250681">
        <ele>43.3966</ele>
        <time>2012-08-14T18:33:43Z</time>
      </trkpt>
      <trkpt lat="59.9521159" lon="17.7253075">
        <ele>43.8773</ele>
        <time>2012-08-14T18:33:49Z</time>
      </trkpt>
      <trkpt lat="59.9520378" lon="17.7254766">
        <ele>46.2806</ele>
        <time>2012-08-14T18:33:54Z</time>
      </trkpt>
      <trkpt lat="59.9519631" lon="17.7256399">
        <ele>46.7612</ele>
        <time>2012-08-14T18:33:59Z</time>
      </trkpt>
      <trkpt lat="59.9518814" lon="17.7257954">
        <ele>46.2806</ele>
        <time>2012-08-14T18:34:04Z</time>
      </trkpt>
      <trkpt lat="59.9517738" lon="17.7259299">
        <ele>45.7999</ele>
        <time>2012-08-14T18:34:10Z</time>
      </trkpt>
      <trkpt lat="59.9516639" lon="17.7260968">
        <ele>44.358</ele>
        <time>2012-08-14T18:34:16Z</time>
      </trkpt>
      <trkpt lat="59.951592" lon="17.7262589">
        <ele>44.358</ele>
        <time>2012-08-14T18:34:21Z</time>
      </trkpt>
      <trkpt lat="59.9515518" lon="17.7264295">
        <ele>46.7612</ele>
        <time>2012-08-14T18:34:26Z</time>
      </trkpt>
      <trkpt lat="59.9514821" lon="17.7265885">
        <ele>48.684</ele>
        <time>2012-08-14T18:34:31Z</time>
      </trkpt>
      <trkpt lat="59.951448" lon="17.7268396">
        <ele>48.2034</ele>
        <time>2012-08-14T18:34:37Z</time>
      </trkpt>
      <trkpt lat="59.9514894" lon="17.7271205">
        <ele>49.1646</ele>
        <time>2012-08-14T18:34:43Z</time>
      </trkpt>
      <trkpt lat="59.9514965" lon="17.7273479">
        <ele>49.6453</ele>
        <time>2012-08-14T18:34:47Z</time>
      </trkpt>
      <trkpt lat="59.9514976" lon="17.7276233">
        <ele>52.0486</ele>
        <time>2012-08-14T18:34:53Z</time>
      </trkpt>
      <trkpt lat="59.9515585" lon="17.7278204">
        <ele>50.126</ele>
        <time>2012-08-14T18:34:59Z</time>
      </trkpt>
      <trkpt lat="59.9516799" lon="17.7278734">
        <ele>48.2034</ele>
        <time>2012-08-14T18:35:04Z</time>
      </trkpt>
      <trkpt lat="59.9518336" lon="17.7278467">
        <ele>47.7225</ele>
        <time>2012-08-14T18:35:10Z</time>
      </trkpt>
      <trkpt lat="59.9518924" lon="17.7278368">
        <ele>48.2034</ele>
        <time>2012-08-14T18:35:12Z</time>
      </trkpt>
      <trkpt lat="59.9519985" lon="17.7277035">
        <ele>48.684</ele>
        <time>2012-08-14T18:35:18Z</time>
      </trkpt>
      <trkpt lat="59.9520931" lon="17.7274261">
        <ele>47.7225</ele>
        <time>2012-08-14T18:35:24Z</time>
      </trkpt>
      <trkpt lat="59.9520996" lon="17.727379">
        <ele>46.7612</ele>
        <time>2012-08-14T18:35:25Z</time>
      </trkpt>
      <trkpt lat="59.9521302" lon="17.7271177">
        <ele>45.3192</ele>
        <time>2012-08-14T18:35:31Z</time>
      </trkpt>
      <trkpt lat="59.9521506" lon="17.7270444">
        <ele>45.3192</ele>
        <time>2012-08-14T18:35:33Z</time>
      </trkpt>
      <trkpt lat="59.9521922" lon="17.7268118">
        <ele>46.2806</ele>
        <time>2012-08-14T18:35:38Z</time>
      </trkpt>
      <trkpt lat="59.9522509" lon="17.7265624">
        <ele>48.2034</ele>
        <time>2012-08-14T18:35:44Z</time>
      </trkpt>
      <trkpt lat="59.9523197" lon="17.7263606">
        <ele>48.684</ele>
        <time>2012-08-14T18:35:50Z</time>
      </trkpt>
      <trkpt lat="59.9523249" lon="17.726334">
        <ele>49.1646</ele>
        <time>2012-08-14T18:35:51Z</time>
      </trkpt>
      <trkpt lat="59.9524284" lon="17.7261745">
        <ele>48.684</ele>
        <time>2012-08-14T18:35:57Z</time>
      </trkpt>
      <trkpt lat="59.9525579" lon="17.7259522">
        <ele>49.1646</ele>
        <time>2012-08-14T18:36:03Z</time>
      </trkpt>
      <trkpt lat="59.9526719" lon="17.7257615">
        <ele>48.684</ele>
        <time>2012-08-14T18:36:09Z</time>
      </trkpt>
      <trkpt lat="59.9527704" lon="17.7256033">
        <ele>47.2418</ele>
        <time>2012-08-14T18:36:14Z</time>
      </trkpt>
      <trkpt lat="59.9528632" lon="17.7254507">
        <ele>46.7612</ele>
        <time>2012-08-14T18:36:19Z</time>
      </trkpt>
      <trkpt lat="59.952979" lon="17.7252989">
        <ele>46.2806</ele>
        <time>2012-08-14T18:36:25Z</time>
      </trkpt>
      <trkpt lat="59.9530547" lon="17.7250532">
        <ele>45.7999</ele>
        <time>2012-08-14T18:36:30Z</time>
      </trkpt>
      <trkpt lat="59.9531232" lon="17.7248856">
        <ele>45.3192</ele>
        <time>2012-08-14T18:36:34Z</time>
      </trkpt>
      <trkpt lat="59.9532147" lon="17.7246926">
        <ele>43.8773</ele>
        <time>2012-08-14T18:36:39Z</time>
      </trkpt>
      <trkpt lat="59.953292" lon="17.724572">
        <ele>42.916</ele>
        <time>2012-08-14T18:36:43Z</time>
      </trkpt>
      <trkpt lat="59.9533909" lon="17.7244273">
        <ele>43.8773</ele>
        <time>2012-08-14T18:36:48Z</time>
      </trkpt>
      <trkpt lat="59.9534764" lon="17.7242432">
        <ele>41.9547</ele>
        <time>2012-08-14T18:36:54Z</time>
      </trkpt>
      <trkpt lat="59.9535412" lon="17.7240398">
        <ele>42.4354</ele>
        <time>2012-08-14T18:36:59Z</time>
      </trkpt>
      <trkpt lat="59.9536503" lon="17.7238714">
        <ele>45.3192</ele>
        <time>2012-08-14T18:37:05Z</time>
      </trkpt>
      <trkpt lat="59.9537249" lon="17.723746">
        <ele>47.2418</ele>
        <time>2012-08-14T18:37:09Z</time>
      </trkpt>
      <trkpt lat="59.9538089" lon="17.7236413">
        <ele>49.6453</ele>
        <time>2012-08-14T18:37:14Z</time>
      </trkpt>
      <trkpt lat="59.9538913" lon="17.7235545">
        <ele>50.6066</ele>
        <time>2012-08-14T18:37:19Z</time>
      </trkpt>
      <trkpt lat="59.9540079" lon="17.7234116">
        <ele>48.2034</ele>
        <time>2012-08-14T18:37:25Z</time>
      </trkpt>
      <trkpt lat="59.9541477" lon="17.7233189">
        <ele>54.4518</ele>
        <time>2012-08-14T18:37:31Z</time>
      </trkpt>
      <trkpt lat="59.9542294" lon="17.7232458">
        <ele>56.3745</ele>
        <time>2012-08-14T18:37:36Z</time>
      </trkpt>
      <trkpt lat="59.9542706" lon="17.7232205">
        <ele>56.3745</ele>
        <time>2012-08-14T18:37:38Z</time>
      </trkpt>
      <trkpt lat="59.9543907" lon="17.7233362">
        <ele>55.4131</ele>
        <time>2012-08-14T18:37:43Z</time>
      </trkpt>
      <trkpt lat="59.9545027" lon="17.7233898">
        <ele>55.4131</ele>
        <time>2012-08-14T18:37:48Z</time>
      </trkpt>
      <trkpt lat="59.9546538" lon="17.7234384">
        <ele>55.8938</ele>
        <time>2012-08-14T18:37:55Z</time>
      </trkpt>
      <trkpt lat="59.9547559" lon="17.7235219">
        <ele>55.8938</ele>
        <time>2012-08-14T18:38:00Z</time>
      </trkpt>
      <trkpt lat="59.9548698" lon="17.7235938">
        <ele>55.4131</ele>
        <time>2012-08-14T18:38:06Z</time>
      </trkpt>
      <trkpt lat="59.9549274" lon="17.7236213">
        <ele>57.8165</ele>
        <time>2012-08-14T18:38:09Z</time>
      </trkpt>
      <trkpt lat="59.95508" lon="17.7235493">
        <ele>57.8165</ele>
        <time>2012-08-14T18:38:15Z</time>
      </trkpt>
      <trkpt lat="59.955247" lon="17.7234473">
        <ele>57.8165</ele>
        <time>2012-08-14T18:38:22Z</time>
      </trkpt>
      <trkpt lat="59.9553882" lon="17.72331">
        <ele>56.3745</ele>
        <time>2012-08-14T18:38:28Z</time>
      </trkpt>
      <trkpt lat="59.9554997" lon="17.7233507">
        <ele>57.8165</ele>
        <time>2012-08-14T18:38:33Z</time>
      </trkpt>
      <trkpt lat="59.9556187" lon="17.7234037">
        <ele>55.8938</ele>
        <time>2012-08-14T18:38:39Z</time>
      </trkpt>
      <trkpt lat="59.9557155" lon="17.7235628">
        <ele>54.4518</ele>
        <time>2012-08-14T18:38:44Z</time>
      </trkpt>
      <trkpt lat="59.9558365" lon="17.7236311">
        <ele>59.2584</ele>
        <time>2012-08-14T18:38:48Z</time>
      </trkpt>
      <trkpt lat="59.9559349" lon="17.7236273">
        <ele>58.2971</ele>
        <time>2012-08-14T18:38:53Z</time>
      </trkpt>
      <trkpt lat="59.9560474" lon="17.7234455">
        <ele>57.3358</ele>
        <time>2012-08-14T18:38:59Z</time>
      </trkpt>
      <trkpt lat="59.9560866" lon="17.7232741">
        <ele>55.4131</ele>
        <time>2012-08-14T18:39:03Z</time>
      </trkpt>
      <trkpt lat="59.9561198" lon="17.723126">
        <ele>53.9712</ele>
        <time>2012-08-14T18:39:07Z</time>
      </trkpt>
      <trkpt lat="59.9560764" lon="17.7227117">
        <ele>51.5679</ele>
        <time>2012-08-14T18:39:15Z</time>
      </trkpt>
      <trkpt lat="59.9560282" lon="17.7224765">
        <ele>50.126</ele>
        <time>2012-08-14T18:39:20Z</time>
      </trkpt>
      <trkpt lat="59.9560002" lon="17.7222772">
        <ele>50.126</ele>
        <time>2012-08-14T18:39:24Z</time>
      </trkpt>
      <trkpt lat="59.9559929" lon="17.722132">
        <ele>49.1646</ele>
        <time>2012-08-14T18:39:27Z</time>
      </trkpt>
      <trkpt lat="59.9559762" lon="17.7218381">
        <ele>50.6066</ele>
        <time>2012-08-14T18:39:33Z</time>
      </trkpt>
      <trkpt lat="59.9559867" lon="17.7216221">
        <ele>54.4518</ele>
        <time>2012-08-14T18:39:38Z</time>
      </trkpt>
      <trkpt lat="59.9559976" lon="17.721574">
        <ele>55.4131</ele>
        <time>2012-08-14T18:39:39Z</time>
      </trkpt>
      <trkpt lat="59.955997" lon="17.7214087">
        <ele>56.8551</ele>
        <time>2012-08-14T18:39:43Z</time>
      </trkpt>
      <trkpt lat="59.9559091" lon="17.7212663">
        <ele>56.3745</ele>
        <time>2012-08-14T18:39:48Z</time>
      </trkpt>
      <trkpt lat="59.9557943" lon="17.7212126">
        <ele>54.9324</ele>
        <time>2012-08-14T18:39:53Z</time>
      </trkpt>
      <trkpt lat="59.9557021" lon="17.7212846">
        <ele>54.4518</ele>
        <time>2012-08-14T18:39:57Z</time>
      </trkpt>
      <trkpt lat="59.9556899" lon="17.7213016">
        <ele>54.4518</ele>
        <time>2012-08-14T18:39:58Z</time>
      </trkpt>
      <trkpt lat="59.9555692" lon="17.7213862">
        <ele>48.2034</ele>
        <time>2012-08-14T18:40:05Z</time>
      </trkpt>
      <trkpt lat="59.9555201" lon="17.7213954">
        <ele>44.8386</ele>
        <time>2012-08-14T18:40:08Z</time>
      </trkpt>
      <trkpt lat="59.9554737" lon="17.7213887">
        <ele>41.474</ele>
        <time>2012-08-14T18:40:10Z</time>
      </trkpt>
      <trkpt lat="59.9553071" lon="17.7213498">
        <ele>36.1868</ele>
        <time>2012-08-14T18:40:17Z</time>
      </trkpt>
      <trkpt lat="59.9551838" lon="17.7213349">
        <ele>34.7449</ele>
        <time>2012-08-14T18:40:22Z</time>
      </trkpt>
      <trkpt lat="59.9550484" lon="17.7212918">
        <ele>28.4962</ele>
        <time>2012-08-14T18:40:29Z</time>
      </trkpt>
      <trkpt lat="59.9549284" lon="17.7211842">
        <ele>26.5736</ele>
        <time>2012-08-14T18:40:34Z</time>
      </trkpt>
      <trkpt lat="59.9548413" lon="17.7210215">
        <ele>32.3416</ele>
        <time>2012-08-14T18:40:39Z</time>
      </trkpt>
      <trkpt lat="59.9548191" lon="17.7207902">
        <ele>40.0321</ele>
        <time>2012-08-14T18:40:44Z</time>
      </trkpt>
      <trkpt lat="59.9548383" lon="17.7206329">
        <ele>44.8386</ele>
        <time>2012-08-14T18:40:48Z</time>
      </trkpt>
      <trkpt lat="59.9549502" lon="17.7204669">
        <ele>52.0486</ele>
        <time>2012-08-14T18:40:54Z</time>
      </trkpt>
      <trkpt lat="59.9550364" lon="17.7203714">
        <ele>56.3745</ele>
        <time>2012-08-14T18:40:59Z</time>
      </trkpt>
      <trkpt lat="59.9551246" lon="17.7203034">
        <ele>58.7777</ele>
        <time>2012-08-14T18:41:03Z</time>
      </trkpt>
      <trkpt lat="59.955247" lon="17.7202256">
        <ele>60.2197</ele>
        <time>2012-08-14T18:41:09Z</time>
      </trkpt>
      <trkpt lat="59.9553395" lon="17.7201672">
        <ele>61.181</ele>
        <time>2012-08-14T18:41:14Z</time>
      </trkpt>
      <trkpt lat="59.9554288" lon="17.7199963">
        <ele>62.1423</ele>
        <time>2012-08-14T18:41:20Z</time>
      </trkpt>
      <trkpt lat="59.9555054" lon="17.7198777">
        <ele>63.5844</ele>
        <time>2012-08-14T18:41:25Z</time>
      </trkpt>
      <trkpt lat="59.9556219" lon="17.7198251">
        <ele>62.1423</ele>
        <time>2012-08-14T18:41:30Z</time>
      </trkpt>
      <trkpt lat="59.9557811" lon="17.7197165">
        <ele>63.1036</ele>
        <time>2012-08-14T18:41:36Z</time>
      </trkpt>
      <trkpt lat="59.9558917" lon="17.7195991">
        <ele>62.1423</ele>
        <time>2012-08-14T18:41:42Z</time>
      </trkpt>
      <trkpt lat="59.9559808" lon="17.7195181">
        <ele>60.7003</ele>
        <time>2012-08-14T18:41:46Z</time>
      </trkpt>
      <trkpt lat="59.9560913" lon="17.7193343">
        <ele>58.2971</ele>
        <time>2012-08-14T18:41:51Z</time>
      </trkpt>
      <trkpt lat="59.9561705" lon="17.7191701">
        <ele>56.8551</ele>
        <time>2012-08-14T18:41:56Z</time>
      </trkpt>
      <trkpt lat="59.9562198" lon="17.7190058">
        <ele>56.3745</ele>
        <time>2012-08-14T18:42:00Z</time>
      </trkpt>
      <trkpt lat="59.9562361" lon="17.7187582">
        <ele>56.3745</ele>
        <time>2012-08-14T18:42:05Z</time>
      </trkpt>
      <trkpt lat="59.956182" lon="17.7185069">
        <ele>53.9712</ele>
        <time>2012-08-14T18:42:10Z</time>
      </trkpt>
      <trkpt lat="59.956094" lon="17.7182528">
        <ele>52.5292</ele>
        <time>2012-08-14T18:42:16Z</time>
      </trkpt>
      <trkpt lat="59.9560163" lon="17.7180338">
        <ele>52.5292</ele>
        <time>2012-08-14T18:42:21Z</time>
      </trkpt>
      <trkpt lat="59.9559311" lon="17.7178329">
        <ele>53.4905</ele>
        <time>2012-08-14T18:42:26Z</time>
      </trkpt>
      <trkpt lat="59.9558613" lon="17.7176865">
        <ele>53.0098</ele>
        <time>2012-08-14T18:42:30Z</time>
      </trkpt>
      <trkpt lat="59.9557897" lon="17.7175456">
        <ele>51.0872</ele>
        <time>2012-08-14T18:42:34Z</time>
      </trkpt>
      <trkpt lat="59.955754" lon="17.7174566">
        <ele>51.5679</ele>
        <time>2012-08-14T18:42:36Z</time>
      </trkpt>
      <trkpt lat="59.9556697" lon="17.7172581">
        <ele>52.5292</ele>
        <time>2012-08-14T18:42:41Z</time>
      </trkpt>
      <trkpt lat="59.9556468" lon="17.7171854">
        <ele>53.0098</ele>
        <time>2012-08-14T18:42:43Z</time>
      </trkpt>
      <trkpt lat="59.9556037" lon="17.7169467">
        <ele>51.5679</ele>
        <time>2012-08-14T18:42:49Z</time>
      </trkpt>
      <trkpt lat="59.9555798" lon="17.7167053">
        <ele>51.0872</ele>
        <time>2012-08-14T18:42:55Z</time>
      </trkpt>
      <trkpt lat="59.9555583" lon="17.7164609">
        <ele>51.0872</ele>
        <time>2012-08-14T18:43:00Z</time>
      </trkpt>
      <trkpt lat="59.955527" lon="17.7162217">
        <ele>51.5679</ele>
        <time>2012-08-14T18:43:06Z</time>
      </trkpt>
      <trkpt lat="59.955506" lon="17.7160308">
        <ele>51.0872</ele>
        <time>2012-08-14T18:43:10Z</time>
      </trkpt>
      <trkpt lat="59.9554845" lon="17.7158337">
        <ele>50.126</ele>
        <time>2012-08-14T18:43:14Z</time>
      </trkpt>
      <trkpt lat="59.955479" lon="17.7155409">
        <ele>50.126</ele>
        <time>2012-08-14T18:43:20Z</time>
      </trkpt>
      <trkpt lat="59.9554786" lon="17.7154702">
        <ele>49.6453</ele>
        <time>2012-08-14T18:43:22Z</time>
      </trkpt>
      <trkpt lat="59.9554421" lon="17.7151828">
        <ele>48.2034</ele>
        <time>2012-08-14T18:43:29Z</time>
      </trkpt>
    </trkseg>
  </trk>
</gpx>